sensor_id;sensor_type;location;lat;lon;timestamp;P1;durP1;ratioP1;P2;durP2;ratioP2
5032;SDS011;2535;49.888;8.942;2023-11-18T00:02:03;22.27;;;6.83;;
5032;SDS011;2535;49.888;8.942;2023-11-18T00:04:29;15.47;;;3.50;;
5032;SDS011;2535;49.888;8.942;2023-11-18T00:06:55;19.83;;;4.30;;
5032;SDS011;2535;49.888;8.942;2023-11-18T00:09:22;21.90;;;5.83;;
5032;SDS011;2535;49.888;8.942;2023-11-18T00:11:49;17.80;;;5.60;;
5032;SDS011;2535;49.888;8.942;2023-11-18T00:14:15;33.57;;;5.80;;
5032;SDS011;2535;49.888;8.942;2023-11-18T00:16:42;19.70;;;5.47;;
5032;SDS011;2535;49.888;8.942;2023-11-18T00:19:08;16.40;;;3.70;;
5032;SDS011;2535;49.888;8.942;2023-11-18T00:21:35;22.07;;;4.77;;
5032;SDS011;2535;49.888;8.942;2023-11-18T00:24:04;18.80;;;4.20;;
5032;SDS011;2535;49.888;8.942;2023-11-18T00:26:30;16.93;;;3.97;;
5032;SDS011;2535;49.888;8.942;2023-11-18T00:28:56;17.37;;;3.40;;
5032;SDS011;2535;49.888;8.942;2023-11-18T00:31:22;18.70;;;4.43;;
5032;SDS011;2535;49.888;8.942;2023-11-18T00:33:49;18.17;;;4.10;;
5032;SDS011;2535;49.888;8.942;2023-11-18T00:36:15;16.80;;;3.80;;
5032;SDS011;2535;49.888;8.942;2023-11-18T00:38:41;19.90;;;4.33;;
5032;SDS011;2535;49.888;8.942;2023-11-18T00:41:07;18.70;;;4.40;;
5032;SDS011;2535;49.888;8.942;2023-11-18T00:43:33;16.20;;;3.50;;
5032;SDS011;2535;49.888;8.942;2023-11-18T00:45:59;19.80;;;5.57;;
5032;SDS011;2535;49.888;8.942;2023-11-18T00:48:26;21.13;;;4.57;;
5032;SDS011;2535;49.888;8.942;2023-11-18T00:50:53;15.90;;;5.00;;
5032;SDS011;2535;49.888;8.942;2023-11-18T00:53:19;21.20;;;4.37;;
5032;SDS011;2535;49.888;8.942;2023-11-18T00:55:45;18.73;;;5.50;;
5032;SDS011;2535;49.888;8.942;2023-11-18T00:58:11;16.90;;;4.33;;
5032;SDS011;2535;49.888;8.942;2023-11-18T01:00:37;21.00;;;4.87;;
5032;SDS011;2535;49.888;8.942;2023-11-18T01:03:03;14.63;;;3.30;;
5032;SDS011;2535;49.888;8.942;2023-11-18T01:05:29;14.57;;;3.60;;
5032;SDS011;2535;49.888;8.942;2023-11-18T01:07:56;17.20;;;3.80;;
5032;SDS011;2535;49.888;8.942;2023-11-18T01:10:22;17.17;;;3.67;;
5032;SDS011;2535;49.888;8.942;2023-11-18T01:12:48;23.23;;;5.15;;
5032;SDS011;2535;49.888;8.942;2023-11-18T01:15:14;22.90;;;6.40;;
5032;SDS011;2535;49.888;8.942;2023-11-18T01:17:40;17.02;;;3.88;;
5032;SDS011;2535;49.888;8.942;2023-11-18T01:20:07;17.57;;;3.50;;
5032;SDS011;2535;49.888;8.942;2023-11-18T01:22:36;16.50;;;3.70;;
5032;SDS011;2535;49.888;8.942;2023-11-18T01:25:03;18.63;;;4.40;;
5032;SDS011;2535;49.888;8.942;2023-11-18T01:27:29;22.63;;;4.35;;
5032;SDS011;2535;49.888;8.942;2023-11-18T01:29:55;24.47;;;4.70;;
5032;SDS011;2535;49.888;8.942;2023-11-18T01:32:21;16.90;;;5.20;;
5032;SDS011;2535;49.888;8.942;2023-11-18T01:34:47;16.00;;;3.77;;
5032;SDS011;2535;49.888;8.942;2023-11-18T01:37:18;18.95;;;4.78;;
5032;SDS011;2535;49.888;8.942;2023-11-18T01:39:46;18.87;;;5.10;;
5032;SDS011;2535;49.888;8.942;2023-11-18T01:42:12;24.00;;;6.13;;
5032;SDS011;2535;49.888;8.942;2023-11-18T01:44:38;28.85;;;5.72;;
5032;SDS011;2535;49.888;8.942;2023-11-18T01:47:05;24.50;;;4.73;;
5032;SDS011;2535;49.888;8.942;2023-11-18T01:49:35;18.00;;;3.70;;
5032;SDS011;2535;49.888;8.942;2023-11-18T01:52:05;21.27;;;5.50;;
5032;SDS011;2535;49.888;8.942;2023-11-18T01:54:32;18.67;;;4.20;;
5032;SDS011;2535;49.888;8.942;2023-11-18T01:56:58;19.52;;;4.32;;
5032;SDS011;2535;49.888;8.942;2023-11-18T01:59:27;39.45;;;5.57;;
5032;SDS011;2535;49.888;8.942;2023-11-18T02:01:55;15.95;;;3.65;;
5032;SDS011;2535;49.888;8.942;2023-11-18T02:04:24;16.27;;;4.30;;
5032;SDS011;2535;49.888;8.942;2023-11-18T02:06:50;14.48;;;3.03;;
5032;SDS011;2535;49.888;8.942;2023-11-18T02:09:17;13.30;;;2.45;;
5032;SDS011;2535;49.888;8.942;2023-11-18T02:11:45;17.38;;;3.08;;
5032;SDS011;2535;49.888;8.942;2023-11-18T02:14:13;21.05;;;4.15;;
5032;SDS011;2535;49.888;8.942;2023-11-18T02:16:42;13.48;;;2.25;;
5032;SDS011;2535;49.888;8.942;2023-11-18T02:19:09;12.50;;;1.75;;
5032;SDS011;2535;49.888;8.942;2023-11-18T02:21:38;12.70;;;1.65;;
5032;SDS011;2535;49.888;8.942;2023-11-18T02:24:05;12.77;;;1.73;;
5032;SDS011;2535;49.888;8.942;2023-11-18T02:26:31;12.48;;;1.48;;
5032;SDS011;2535;49.888;8.942;2023-11-18T02:28:57;13.10;;;1.67;;
5032;SDS011;2535;49.888;8.942;2023-11-18T02:31:27;14.23;;;2.47;;
5032;SDS011;2535;49.888;8.942;2023-11-18T02:34:07;14.52;;;2.55;;
5032;SDS011;2535;49.888;8.942;2023-11-18T02:36:39;14.63;;;3.08;;
5032;SDS011;2535;49.888;8.942;2023-11-18T02:39:12;12.75;;;1.77;;
5032;SDS011;2535;49.888;8.942;2023-11-18T02:41:42;14.98;;;2.88;;
5032;SDS011;2535;49.888;8.942;2023-11-18T02:44:10;13.00;;;1.42;;
5032;SDS011;2535;49.888;8.942;2023-11-18T02:46:36;15.60;;;2.58;;
5032;SDS011;2535;49.888;8.942;2023-11-18T02:49:03;13.82;;;1.92;;
5032;SDS011;2535;49.888;8.942;2023-11-18T02:51:29;13.63;;;2.30;;
5032;SDS011;2535;49.888;8.942;2023-11-18T02:54:04;14.48;;;3.38;;
5032;SDS011;2535;49.888;8.942;2023-11-18T02:56:31;19.77;;;3.50;;
5032;SDS011;2535;49.888;8.942;2023-11-18T02:58:57;16.30;;;3.40;;
5032;SDS011;2535;49.888;8.942;2023-11-18T03:01:24;19.30;;;4.30;;
5032;SDS011;2535;49.888;8.942;2023-11-18T03:03:52;16.10;;;3.63;;
5032;SDS011;2535;49.888;8.942;2023-11-18T03:06:19;17.92;;;4.40;;
5032;SDS011;2535;49.888;8.942;2023-11-18T03:08:46;17.95;;;3.42;;
5032;SDS011;2535;49.888;8.942;2023-11-18T03:11:11;18.20;;;3.53;;
5032;SDS011;2535;49.888;8.942;2023-11-18T03:13:38;15.35;;;3.08;;
5032;SDS011;2535;49.888;8.942;2023-11-18T03:16:07;14.80;;;3.63;;
5032;SDS011;2535;49.888;8.942;2023-11-18T03:18:41;19.48;;;4.68;;
5032;SDS011;2535;49.888;8.942;2023-11-18T03:21:13;15.57;;;3.17;;
5032;SDS011;2535;49.888;8.942;2023-11-18T03:23:40;18.30;;;4.57;;
5032;SDS011;2535;49.888;8.942;2023-11-18T03:26:06;22.17;;;4.97;;
5032;SDS011;2535;49.888;8.942;2023-11-18T03:28:33;21.52;;;5.35;;
5032;SDS011;2535;49.888;8.942;2023-11-18T03:30:59;15.45;;;2.92;;
5032;SDS011;2535;49.888;8.942;2023-11-18T03:33:25;15.15;;;3.03;;
5032;SDS011;2535;49.888;8.942;2023-11-18T03:35:51;18.45;;;5.10;;
5032;SDS011;2535;49.888;8.942;2023-11-18T03:38:17;16.07;;;3.60;;
5032;SDS011;2535;49.888;8.942;2023-11-18T03:40:43;17.88;;;3.30;;
5032;SDS011;2535;49.888;8.942;2023-11-18T03:43:10;16.95;;;4.28;;
5032;SDS011;2535;49.888;8.942;2023-11-18T03:45:39;17.35;;;3.53;;
5032;SDS011;2535;49.888;8.942;2023-11-18T03:48:05;15.85;;;3.80;;
5032;SDS011;2535;49.888;8.942;2023-11-18T03:50:32;17.60;;;3.28;;
5032;SDS011;2535;49.888;8.942;2023-11-18T03:52:58;14.98;;;3.05;;
5032;SDS011;2535;49.888;8.942;2023-11-18T03:55:24;18.42;;;5.25;;
5032;SDS011;2535;49.888;8.942;2023-11-18T03:57:54;17.27;;;5.15;;
5032;SDS011;2535;49.888;8.942;2023-11-18T04:00:22;20.15;;;5.10;;
5032;SDS011;2535;49.888;8.942;2023-11-18T04:02:52;16.10;;;4.20;;
5032;SDS011;2535;49.888;8.942;2023-11-18T04:05:18;16.73;;;3.30;;
5032;SDS011;2535;49.888;8.942;2023-11-18T04:07:44;13.43;;;2.30;;
5032;SDS011;2535;49.888;8.942;2023-11-18T04:10:10;14.30;;;2.50;;
5032;SDS011;2535;49.888;8.942;2023-11-18T04:12:36;13.73;;;2.40;;
5032;SDS011;2535;49.888;8.942;2023-11-18T04:15:03;14.95;;;2.78;;
5032;SDS011;2535;49.888;8.942;2023-11-18T04:17:32;14.90;;;2.58;;
5032;SDS011;2535;49.888;8.942;2023-11-18T04:19:58;14.27;;;2.97;;
5032;SDS011;2535;49.888;8.942;2023-11-18T04:22:24;16.20;;;3.30;;
5032;SDS011;2535;49.888;8.942;2023-11-18T04:24:50;16.17;;;3.20;;
5032;SDS011;2535;49.888;8.942;2023-11-18T04:27:16;17.80;;;3.60;;
5032;SDS011;2535;49.888;8.942;2023-11-18T04:29:42;12.73;;;1.73;;
5032;SDS011;2535;49.888;8.942;2023-11-18T04:32:08;14.40;;;2.10;;
5032;SDS011;2535;49.888;8.942;2023-11-18T04:34:37;13.40;;;2.23;;
5032;SDS011;2535;49.888;8.942;2023-11-18T04:37:03;14.50;;;2.63;;
5032;SDS011;2535;49.888;8.942;2023-11-18T04:39:31;14.43;;;2.55;;
5032;SDS011;2535;49.888;8.942;2023-11-18T04:41:57;16.35;;;3.83;;
5032;SDS011;2535;49.888;8.942;2023-11-18T04:44:23;15.15;;;2.65;;
5032;SDS011;2535;49.888;8.942;2023-11-18T04:46:49;17.40;;;4.10;;
5032;SDS011;2535;49.888;8.942;2023-11-18T04:49:15;14.98;;;3.10;;
5032;SDS011;2535;49.888;8.942;2023-11-18T04:51:41;16.00;;;3.30;;
5032;SDS011;2535;49.888;8.942;2023-11-18T04:54:07;12.87;;;2.20;;
5032;SDS011;2535;49.888;8.942;2023-11-18T04:56:34;13.87;;;2.43;;
5032;SDS011;2535;49.888;8.942;2023-11-18T04:59:03;14.50;;;2.90;;
5032;SDS011;2535;49.888;8.942;2023-11-18T05:01:32;15.02;;;2.92;;
5032;SDS011;2535;49.888;8.942;2023-11-18T05:03:59;19.63;;;2.42;;
5032;SDS011;2535;49.888;8.942;2023-11-18T05:06:25;19.63;;;4.57;;
5032;SDS011;2535;49.888;8.942;2023-11-18T05:08:51;16.10;;;3.45;;
5032;SDS011;2535;49.888;8.942;2023-11-18T05:11:17;16.83;;;3.15;;
5032;SDS011;2535;49.888;8.942;2023-11-18T05:13:43;19.07;;;3.80;;
5032;SDS011;2535;49.888;8.942;2023-11-18T05:16:09;19.65;;;4.50;;
5032;SDS011;2535;49.888;8.942;2023-11-18T05:18:36;19.55;;;4.15;;
5032;SDS011;2535;49.888;8.942;2023-11-18T05:21:03;17.98;;;3.90;;
5032;SDS011;2535;49.888;8.942;2023-11-18T05:23:30;16.17;;;3.28;;
5032;SDS011;2535;49.888;8.942;2023-11-18T05:25:56;17.70;;;3.75;;
5032;SDS011;2535;49.888;8.942;2023-11-18T05:28:26;20.50;;;4.18;;
5032;SDS011;2535;49.888;8.942;2023-11-18T05:30:52;16.55;;;3.28;;
5032;SDS011;2535;49.888;8.942;2023-11-18T05:33:22;14.90;;;2.90;;
5032;SDS011;2535;49.888;8.942;2023-11-18T05:35:48;20.43;;;4.97;;
5032;SDS011;2535;49.888;8.942;2023-11-18T05:38:18;17.60;;;4.45;;
5032;SDS011;2535;49.888;8.942;2023-11-18T05:40:46;19.48;;;3.60;;
5032;SDS011;2535;49.888;8.942;2023-11-18T05:43:21;18.13;;;3.17;;
5032;SDS011;2535;49.888;8.942;2023-11-18T05:45:47;21.15;;;5.47;;
5032;SDS011;2535;49.888;8.942;2023-11-18T05:48:41;18.20;;;3.95;;
5032;SDS011;2535;49.888;8.942;2023-11-18T05:51:07;15.52;;;3.67;;
5032;SDS011;2535;49.888;8.942;2023-11-18T05:53:33;18.27;;;4.60;;
5032;SDS011;2535;49.888;8.942;2023-11-18T05:56:01;16.08;;;3.63;;
5032;SDS011;2535;49.888;8.942;2023-11-18T05:58:27;15.87;;;3.30;;
5032;SDS011;2535;49.888;8.942;2023-11-18T06:00:53;14.60;;;3.20;;
5032;SDS011;2535;49.888;8.942;2023-11-18T06:03:19;15.60;;;2.90;;
5032;SDS011;2535;49.888;8.942;2023-11-18T06:05:45;15.87;;;3.60;;
5032;SDS011;2535;49.888;8.942;2023-11-18T06:08:11;17.20;;;4.43;;
5032;SDS011;2535;49.888;8.942;2023-11-18T06:10:37;19.30;;;4.60;;
5032;SDS011;2535;49.888;8.942;2023-11-18T06:13:03;20.97;;;3.83;;
5032;SDS011;2535;49.888;8.942;2023-11-18T06:15:29;15.37;;;3.63;;
5032;SDS011;2535;49.888;8.942;2023-11-18T06:17:55;16.65;;;3.35;;
5032;SDS011;2535;49.888;8.942;2023-11-18T06:20:21;15.27;;;3.30;;
5032;SDS011;2535;49.888;8.942;2023-11-18T06:22:48;17.27;;;4.65;;
5032;SDS011;2535;49.888;8.942;2023-11-18T06:25:14;16.90;;;4.05;;
5032;SDS011;2535;49.888;8.942;2023-11-18T06:27:42;17.10;;;3.53;;
5032;SDS011;2535;49.888;8.942;2023-11-18T06:30:11;18.17;;;4.63;;
5032;SDS011;2535;49.888;8.942;2023-11-18T06:32:37;18.00;;;4.70;;
5032;SDS011;2535;49.888;8.942;2023-11-18T06:35:04;20.88;;;5.45;;
5032;SDS011;2535;49.888;8.942;2023-11-18T06:37:33;18.85;;;4.85;;
5032;SDS011;2535;49.888;8.942;2023-11-18T06:39:59;16.25;;;4.75;;
5032;SDS011;2535;49.888;8.942;2023-11-18T06:42:25;17.40;;;4.13;;
5032;SDS011;2535;49.888;8.942;2023-11-18T06:44:51;17.50;;;4.60;;
5032;SDS011;2535;49.888;8.942;2023-11-18T06:47:17;19.67;;;5.03;;
5032;SDS011;2535;49.888;8.942;2023-11-18T06:49:44;19.42;;;5.13;;
5032;SDS011;2535;49.888;8.942;2023-11-18T06:52:12;18.42;;;3.33;;
5032;SDS011;2535;49.888;8.942;2023-11-18T06:54:41;14.87;;;3.43;;
5032;SDS011;2535;49.888;8.942;2023-11-18T06:57:07;16.85;;;4.18;;
5032;SDS011;2535;49.888;8.942;2023-11-18T06:59:33;15.33;;;3.57;;
5032;SDS011;2535;49.888;8.942;2023-11-18T07:01:59;17.20;;;3.13;;
5032;SDS011;2535;49.888;8.942;2023-11-18T07:04:25;19.80;;;4.70;;
5032;SDS011;2535;49.888;8.942;2023-11-18T07:06:51;16.33;;;2.80;;
5032;SDS011;2535;49.888;8.942;2023-11-18T07:09:17;16.23;;;4.23;;
5032;SDS011;2535;49.888;8.942;2023-11-18T07:11:45;16.52;;;3.80;;
5032;SDS011;2535;49.888;8.942;2023-11-18T07:14:12;21.10;;;4.38;;
5032;SDS011;2535;49.888;8.942;2023-11-18T07:16:40;19.37;;;4.97;;
5032;SDS011;2535;49.888;8.942;2023-11-18T07:19:06;16.00;;;4.07;;
5032;SDS011;2535;49.888;8.942;2023-11-18T07:21:33;15.83;;;3.40;;
5032;SDS011;2535;49.888;8.942;2023-11-18T07:23:59;16.90;;;4.17;;
5032;SDS011;2535;49.888;8.942;2023-11-18T07:26:25;19.27;;;3.87;;
5032;SDS011;2535;49.888;8.942;2023-11-18T07:28:51;20.50;;;5.03;;
5032;SDS011;2535;49.888;8.942;2023-11-18T07:31:17;18.20;;;4.53;;
5032;SDS011;2535;49.888;8.942;2023-11-18T07:33:46;18.87;;;4.43;;
5032;SDS011;2535;49.888;8.942;2023-11-18T07:36:16;15.50;;;3.80;;
5032;SDS011;2535;49.888;8.942;2023-11-18T07:38:44;15.97;;;3.57;;
5032;SDS011;2535;49.888;8.942;2023-11-18T07:41:10;18.90;;;3.67;;
5032;SDS011;2535;49.888;8.942;2023-11-18T07:43:48;19.00;;;4.50;;
5032;SDS011;2535;49.888;8.942;2023-11-18T07:46:14;22.50;;;5.37;;
5032;SDS011;2535;49.888;8.942;2023-11-18T07:48:40;19.20;;;5.23;;
5032;SDS011;2535;49.888;8.942;2023-11-18T07:51:06;19.23;;;4.80;;
5032;SDS011;2535;49.888;8.942;2023-11-18T07:53:33;21.37;;;5.07;;
5032;SDS011;2535;49.888;8.942;2023-11-18T07:55:59;14.97;;;3.97;;
5032;SDS011;2535;49.888;8.942;2023-11-18T07:58:26;14.30;;;3.60;;
5032;SDS011;2535;49.888;8.942;2023-11-18T08:00:53;15.23;;;3.73;;
5032;SDS011;2535;49.888;8.942;2023-11-18T08:03:19;14.97;;;3.53;;
5032;SDS011;2535;49.888;8.942;2023-11-18T08:05:46;15.73;;;3.77;;
5032;SDS011;2535;49.888;8.942;2023-11-18T08:08:14;15.23;;;3.57;;
5032;SDS011;2535;49.888;8.942;2023-11-18T08:10:43;22.13;;;4.53;;
5032;SDS011;2535;49.888;8.942;2023-11-18T08:13:10;14.77;;;3.57;;
5032;SDS011;2535;49.888;8.942;2023-11-18T08:15:40;14.33;;;3.33;;
5032;SDS011;2535;49.888;8.942;2023-11-18T08:18:06;16.20;;;3.40;;
5032;SDS011;2535;49.888;8.942;2023-11-18T08:20:33;15.37;;;3.97;;
5032;SDS011;2535;49.888;8.942;2023-11-18T08:22:59;17.40;;;4.87;;
5032;SDS011;2535;49.888;8.942;2023-11-18T08:25:25;16.63;;;3.50;;
5032;SDS011;2535;49.888;8.942;2023-11-18T08:27:51;13.53;;;2.33;;
5032;SDS011;2535;49.888;8.942;2023-11-18T08:30:17;16.50;;;3.60;;
5032;SDS011;2535;49.888;8.942;2023-11-18T08:32:45;13.93;;;2.90;;
5032;SDS011;2535;49.888;8.942;2023-11-18T08:35:12;13.53;;;2.70;;
5032;SDS011;2535;49.888;8.942;2023-11-18T08:37:39;15.47;;;2.80;;
5032;SDS011;2535;49.888;8.942;2023-11-18T08:40:05;13.13;;;2.77;;
5032;SDS011;2535;49.888;8.942;2023-11-18T08:42:39;17.13;;;3.30;;
5032;SDS011;2535;49.888;8.942;2023-11-18T08:45:06;14.30;;;2.57;;
5032;SDS011;2535;49.888;8.942;2023-11-18T08:47:32;13.90;;;2.67;;
5032;SDS011;2535;49.888;8.942;2023-11-18T08:49:58;16.20;;;2.50;;
5032;SDS011;2535;49.888;8.942;2023-11-18T08:52:36;13.80;;;2.23;;
5032;SDS011;2535;49.888;8.942;2023-11-18T08:55:02;12.37;;;2.00;;
5032;SDS011;2535;49.888;8.942;2023-11-18T08:57:42;13.33;;;2.20;;
5032;SDS011;2535;49.888;8.942;2023-11-18T09:00:23;14.90;;;3.57;;
5032;SDS011;2535;49.888;8.942;2023-11-18T09:03:11;12.33;;;2.00;;
5032;SDS011;2535;49.888;8.942;2023-11-18T09:05:50;16.00;;;2.70;;
5032;SDS011;2535;49.888;8.942;2023-11-18T09:08:26;11.63;;;1.80;;
5032;SDS011;2535;49.888;8.942;2023-11-18T09:10:52;14.10;;;2.30;;
5032;SDS011;2535;49.888;8.942;2023-11-18T09:13:22;13.00;;;2.70;;
5032;SDS011;2535;49.888;8.942;2023-11-18T09:15:56;14.70;;;2.97;;
5032;SDS011;2535;49.888;8.942;2023-11-18T09:18:23;12.37;;;1.70;;
5032;SDS011;2535;49.888;8.942;2023-11-18T09:20:50;15.03;;;3.40;;
5032;SDS011;2535;49.888;8.942;2023-11-18T09:23:17;13.60;;;2.90;;
5032;SDS011;2535;49.888;8.942;2023-11-18T09:25:45;12.00;;;2.67;;
5032;SDS011;2535;49.888;8.942;2023-11-18T09:28:12;13.70;;;2.60;;
5032;SDS011;2535;49.888;8.942;2023-11-18T09:30:39;15.60;;;3.10;;
5032;SDS011;2535;49.888;8.942;2023-11-18T09:33:14;15.77;;;2.90;;
5032;SDS011;2535;49.888;8.942;2023-11-18T09:35:50;16.00;;;3.40;;
5032;SDS011;2535;49.888;8.942;2023-11-18T09:38:17;12.40;;;2.43;;
5032;SDS011;2535;49.888;8.942;2023-11-18T09:40:43;12.07;;;2.70;;
5032;SDS011;2535;49.888;8.942;2023-11-18T09:43:11;13.00;;;2.80;;
5032;SDS011;2535;49.888;8.942;2023-11-18T09:45:40;13.27;;;2.40;;
5032;SDS011;2535;49.888;8.942;2023-11-18T09:48:08;11.23;;;2.03;;
5032;SDS011;2535;49.888;8.942;2023-11-18T09:50:34;13.90;;;3.00;;
5032;SDS011;2535;49.888;8.942;2023-11-18T09:53:03;12.60;;;2.43;;
5032;SDS011;2535;49.888;8.942;2023-11-18T09:55:42;17.17;;;3.27;;
5032;SDS011;2535;49.888;8.942;2023-11-18T09:58:13;13.97;;;3.20;;
5032;SDS011;2535;49.888;8.942;2023-11-18T10:00:41;13.37;;;2.67;;
5032;SDS011;2535;49.888;8.942;2023-11-18T10:03:07;13.73;;;2.63;;
5032;SDS011;2535;49.888;8.942;2023-11-18T10:05:37;14.03;;;2.70;;
5032;SDS011;2535;49.888;8.942;2023-11-18T10:08:07;13.73;;;3.33;;
5032;SDS011;2535;49.888;8.942;2023-11-18T10:10:33;14.70;;;2.90;;
5032;SDS011;2535;49.888;8.942;2023-11-18T10:13:02;11.20;;;1.97;;
5032;SDS011;2535;49.888;8.942;2023-11-18T10:15:33;11.40;;;2.10;;
5032;SDS011;2535;49.888;8.942;2023-11-18T10:17:59;13.50;;;3.03;;
5032;SDS011;2535;49.888;8.942;2023-11-18T10:20:42;13.87;;;3.17;;
5032;SDS011;2535;49.888;8.942;2023-11-18T10:23:13;12.80;;;2.73;;
5032;SDS011;2535;49.888;8.942;2023-11-18T10:28:22;12.67;;;2.60;;
5032;SDS011;2535;49.888;8.942;2023-11-18T10:30:48;13.07;;;3.03;;
5032;SDS011;2535;49.888;8.942;2023-11-18T10:33:15;12.53;;;2.53;;
5032;SDS011;2535;49.888;8.942;2023-11-18T10:35:52;12.83;;;2.67;;
5032;SDS011;2535;49.888;8.942;2023-11-18T10:38:20;12.70;;;2.93;;
5032;SDS011;2535;49.888;8.942;2023-11-18T10:40:50;13.57;;;2.83;;
5032;SDS011;2535;49.888;8.942;2023-11-18T10:43:17;12.80;;;2.40;;
5032;SDS011;2535;49.888;8.942;2023-11-18T10:45:42;18.60;;;2.90;;
5032;SDS011;2535;49.888;8.942;2023-11-18T10:48:11;13.83;;;2.03;;
5032;SDS011;2535;49.888;8.942;2023-11-18T10:50:41;11.37;;;2.50;;
5032;SDS011;2535;49.888;8.942;2023-11-18T10:53:07;13.10;;;2.40;;
5032;SDS011;2535;49.888;8.942;2023-11-18T10:55:36;13.80;;;2.63;;
5032;SDS011;2535;49.888;8.942;2023-11-18T10:58:03;12.10;;;2.50;;
5032;SDS011;2535;49.888;8.942;2023-11-18T11:00:29;12.83;;;2.50;;
5032;SDS011;2535;49.888;8.942;2023-11-18T11:03:12;11.43;;;1.73;;
5032;SDS011;2535;49.888;8.942;2023-11-18T11:05:39;11.17;;;1.40;;
5032;SDS011;2535;49.888;8.942;2023-11-18T11:08:07;11.77;;;1.93;;
5032;SDS011;2535;49.888;8.942;2023-11-18T11:10:34;11.73;;;2.03;;
5032;SDS011;2535;49.888;8.942;2023-11-18T11:13:01;12.27;;;2.17;;
5032;SDS011;2535;49.888;8.942;2023-11-18T11:15:30;11.53;;;1.77;;
5032;SDS011;2535;49.888;8.942;2023-11-18T11:18:02;10.50;;;1.40;;
5032;SDS011;2535;49.888;8.942;2023-11-18T11:20:34;12.80;;;2.90;;
5032;SDS011;2535;49.888;8.942;2023-11-18T11:25:58;10.17;;;1.30;;
5032;SDS011;2535;49.888;8.942;2023-11-18T11:28:33;10.00;;;1.37;;
5032;SDS011;2535;49.888;8.942;2023-11-18T11:31:19;10.80;;;1.40;;
5032;SDS011;2535;49.888;8.942;2023-11-18T11:33:55;12.20;;;2.10;;
5032;SDS011;2535;49.888;8.942;2023-11-18T11:36:25;11.67;;;1.90;;
5032;SDS011;2535;49.888;8.942;2023-11-18T11:38:56;11.57;;;2.10;;
5032;SDS011;2535;49.888;8.942;2023-11-18T11:41:23;10.60;;;2.07;;
5032;SDS011;2535;49.888;8.942;2023-11-18T11:43:52;26.17;;;1.73;;
5032;SDS011;2535;49.888;8.942;2023-11-18T11:46:20;11.10;;;1.80;;
5032;SDS011;2535;49.888;8.942;2023-11-18T11:48:48;10.60;;;1.73;;
5032;SDS011;2535;49.888;8.942;2023-11-18T11:53:47;10.50;;;1.60;;
5032;SDS011;2535;49.888;8.942;2023-11-18T11:56:17;12.13;;;2.20;;
5032;SDS011;2535;49.888;8.942;2023-11-18T11:58:49;11.50;;;2.30;;
5032;SDS011;2535;49.888;8.942;2023-11-18T12:01:25;11.23;;;1.77;;
5032;SDS011;2535;49.888;8.942;2023-11-18T12:03:57;15.17;;;2.20;;
5032;SDS011;2535;49.888;8.942;2023-11-18T12:06:31;12.77;;;2.47;;
5032;SDS011;2535;49.888;8.942;2023-11-18T12:08:57;12.37;;;1.70;;
5032;SDS011;2535;49.888;8.942;2023-11-18T12:11:23;10.27;;;1.70;;
5032;SDS011;2535;49.888;8.942;2023-11-18T12:14:02;10.47;;;1.30;;
5032;SDS011;2535;49.888;8.942;2023-11-18T12:16:57;10.50;;;1.70;;
5032;SDS011;2535;49.888;8.942;2023-11-18T12:19:29;11.80;;;1.90;;
5032;SDS011;2535;49.888;8.942;2023-11-18T12:21:57;10.57;;;1.63;;
5032;SDS011;2535;49.888;8.942;2023-11-18T12:24:25;10.40;;;1.43;;
5032;SDS011;2535;49.888;8.942;2023-11-18T12:26:54;10.40;;;1.70;;
5032;SDS011;2535;49.888;8.942;2023-11-18T12:29:32;12.80;;;1.60;;
5032;SDS011;2535;49.888;8.942;2023-11-18T12:31:59;10.50;;;1.70;;
5032;SDS011;2535;49.888;8.942;2023-11-18T12:37:21;10.03;;;1.40;;
5032;SDS011;2535;49.888;8.942;2023-11-18T12:40:00;11.30;;;1.97;;
5032;SDS011;2535;49.888;8.942;2023-11-18T12:45:42;10.40;;;1.87;;
5032;SDS011;2535;49.888;8.942;2023-11-18T12:48:15;13.07;;;2.30;;
5032;SDS011;2535;49.888;8.942;2023-11-18T12:50:42;11.43;;;2.03;;
5032;SDS011;2535;49.888;8.942;2023-11-18T12:53:10;9.97;;;1.53;;
5032;SDS011;2535;49.888;8.942;2023-11-18T12:55:39;10.67;;;1.50;;
5032;SDS011;2535;49.888;8.942;2023-11-18T12:58:06;14.73;;;2.03;;
5032;SDS011;2535;49.888;8.942;2023-11-18T13:00:32;10.60;;;1.70;;
5032;SDS011;2535;49.888;8.942;2023-11-18T13:03:00;10.03;;;1.70;;
5032;SDS011;2535;49.888;8.942;2023-11-18T13:05:26;10.03;;;1.40;;
5032;SDS011;2535;49.888;8.942;2023-11-18T13:07:55;11.63;;;1.60;;
5032;SDS011;2535;49.888;8.942;2023-11-18T13:10:22;11.70;;;2.20;;
5032;SDS011;2535;49.888;8.942;2023-11-18T13:12:49;10.07;;;1.50;;
5032;SDS011;2535;49.888;8.942;2023-11-18T13:15:15;9.70;;;1.33;;
5032;SDS011;2535;49.888;8.942;2023-11-18T13:17:56;11.40;;;1.47;;
5032;SDS011;2535;49.888;8.942;2023-11-18T13:20:22;9.90;;;1.30;;
5032;SDS011;2535;49.888;8.942;2023-11-18T13:22:51;11.20;;;1.90;;
5032;SDS011;2535;49.888;8.942;2023-11-18T13:25:17;12.20;;;2.00;;
5032;SDS011;2535;49.888;8.942;2023-11-18T13:27:43;10.17;;;1.13;;
5032;SDS011;2535;49.888;8.942;2023-11-18T13:30:10;13.13;;;1.60;;
5032;SDS011;2535;49.888;8.942;2023-11-18T13:32:40;11.90;;;1.60;;
5032;SDS011;2535;49.888;8.942;2023-11-18T13:35:06;10.13;;;1.40;;
5032;SDS011;2535;49.888;8.942;2023-11-18T13:37:33;10.10;;;1.30;;
5032;SDS011;2535;49.888;8.942;2023-11-18T13:39:59;10.47;;;1.30;;
5032;SDS011;2535;49.888;8.942;2023-11-18T13:42:25;11.63;;;1.43;;
5032;SDS011;2535;49.888;8.942;2023-11-18T13:44:59;11.37;;;1.87;;
5032;SDS011;2535;49.888;8.942;2023-11-18T13:47:26;11.30;;;1.47;;
5032;SDS011;2535;49.888;8.942;2023-11-18T13:49:56;14.50;;;2.47;;
5032;SDS011;2535;49.888;8.942;2023-11-18T13:52:25;11.97;;;1.70;;
5032;SDS011;2535;49.888;8.942;2023-11-18T13:54:52;11.80;;;1.53;;
5032;SDS011;2535;49.888;8.942;2023-11-18T13:57:22;10.87;;;1.07;;
5032;SDS011;2535;49.888;8.942;2023-11-18T13:59:49;10.43;;;1.10;;
5032;SDS011;2535;49.888;8.942;2023-11-18T14:02:15;10.60;;;1.23;;
5032;SDS011;2535;49.888;8.942;2023-11-18T14:04:41;11.23;;;1.60;;
5032;SDS011;2535;49.888;8.942;2023-11-18T14:07:09;11.83;;;1.10;;
5032;SDS011;2535;49.888;8.942;2023-11-18T14:09:35;11.93;;;1.40;;
5032;SDS011;2535;49.888;8.942;2023-11-18T14:12:04;10.60;;;1.10;;
5032;SDS011;2535;49.888;8.942;2023-11-18T14:14:31;10.43;;;1.30;;
5032;SDS011;2535;49.888;8.942;2023-11-18T14:16:57;11.80;;;1.70;;
5032;SDS011;2535;49.888;8.942;2023-11-18T14:19:27;10.70;;;1.30;;
5032;SDS011;2535;49.888;8.942;2023-11-18T14:21:54;10.70;;;1.33;;
5032;SDS011;2535;49.888;8.942;2023-11-18T14:24:21;12.20;;;1.73;;
5032;SDS011;2535;49.888;8.942;2023-11-18T14:26:55;11.00;;;1.53;;
5032;SDS011;2535;49.888;8.942;2023-11-18T14:29:22;12.63;;;1.73;;
5032;SDS011;2535;49.888;8.942;2023-11-18T14:31:48;11.37;;;1.50;;
5032;SDS011;2535;49.888;8.942;2023-11-18T14:34:14;11.23;;;1.83;;
5032;SDS011;2535;49.888;8.942;2023-11-18T14:36:40;11.03;;;1.43;;
5032;SDS011;2535;49.888;8.942;2023-11-18T14:39:06;11.00;;;1.57;;
5032;SDS011;2535;49.888;8.942;2023-11-18T14:41:35;10.63;;;1.40;;
5032;SDS011;2535;49.888;8.942;2023-11-18T14:44:01;11.17;;;1.67;;
5032;SDS011;2535;49.888;8.942;2023-11-18T14:46:29;11.67;;;2.00;;
5032;SDS011;2535;49.888;8.942;2023-11-18T14:48:56;11.40;;;1.83;;
5032;SDS011;2535;49.888;8.942;2023-11-18T14:51:22;10.47;;;1.30;;
5032;SDS011;2535;49.888;8.942;2023-11-18T14:53:48;12.03;;;1.37;;
5032;SDS011;2535;49.888;8.942;2023-11-18T14:56:14;10.83;;;1.50;;
5032;SDS011;2535;49.888;8.942;2023-11-18T14:58:40;12.37;;;1.77;;
5032;SDS011;2535;49.888;8.942;2023-11-18T15:01:06;10.90;;;1.40;;
5032;SDS011;2535;49.888;8.942;2023-11-18T15:03:33;10.50;;;1.27;;
5032;SDS011;2535;49.888;8.942;2023-11-18T15:06:00;11.83;;;2.13;;
5032;SDS011;2535;49.888;8.942;2023-11-18T15:08:26;11.17;;;1.83;;
5032;SDS011;2535;49.888;8.942;2023-11-18T15:10:52;11.57;;;1.60;;
5032;SDS011;2535;49.888;8.942;2023-11-18T15:13:18;11.00;;;1.60;;
5032;SDS011;2535;49.888;8.942;2023-11-18T15:15:45;13.60;;;1.80;;
5032;SDS011;2535;49.888;8.942;2023-11-18T15:18:14;10.47;;;1.10;;
5032;SDS011;2535;49.888;8.942;2023-11-18T15:20:42;11.00;;;1.77;;
5032;SDS011;2535;49.888;8.942;2023-11-18T15:23:09;10.93;;;1.60;;